Time;durP1;ratioP1;P1;durP2;ratioP2;P2;SDS_P1;SDS_P2;PMS_P1;PMS_P2;Temp;Humidity;BMP_temperature;BMP_pressure;BME280_temperature;BME280_humidity;BME280_pressure;Samples;Min_cycle;Max_cycle;Signal;HPM_P1;HPM_P2
2022/11/25 00:01:21;;;;;;;;;;;10.50;68.40;;;;;;5027130;28;19925;-50
2022/11/25 00:03:51;;;;;;;;;;;10.60;68.40;;;;;;5022231;28;20392;-51
2022/11/25 00:06:17;;;;;;;;;;;10.60;68.40;;;;;;5013937;28;20325;-47
2022/11/25 00:08:48;;;;;;;;;;;10.60;68.40;;;;;;5020898;28;19963;-49
2022/11/25 00:11:18;;;;;;;;;;;10.60;68.40;;;;;;5024737;28;19980;-48
2022/11/25 00:13:48;;;;;;;;;;;10.70;68.50;;;;;;5013840;28;19925;-50
2022/11/25 00:16:18;;;;;;;;;;;10.70;68.50;;;;;;5014230;28;19956;-47
2022/11/25 00:18:52;;;;;;;;;;;10.70;68.50;;;;;;5024705;28;19932;-52
2022/11/25 00:21:23;;;;;;;;;;;10.70;68.50;;;;;;5029447;28;19932;-49
2022/11/25 00:23:51;;;;;;;;;;;10.80;68.60;;;;;;5017582;28;19929;-48
2022/11/25 00:26:22;;;;;;;;;;;10.80;68.50;;;;;;5014878;28;19967;-47
2022/11/25 00:28:49;;;;;;;;;;;10.80;68.50;;;;;;5011695;28;20418;-48
2022/11/25 00:31:17;;;;;;;;;;;10.80;68.50;;;;;;5029217;28;19929;-49
2022/11/25 00:33:47;;;;;;;;;;;10.80;68.50;;;;;;5032393;28;20020;-50
2022/11/25 00:36:19;;;;;;;;;;;10.90;68.50;;;;;;5013340;28;20444;-47
2022/11/25 00:38:55;;;;;;;;;;;10.90;68.40;;;;;;5029100;28;19931;-49
2022/11/25 00:44:53;;;;;;;;;;;10.90;68.40;;;;;;5032638;28;19925;-48
2022/11/25 00:47:14;;;;;;;;;;;10.90;68.50;;;;;;5020759;28;19936;-47
2022/11/25 00:49:52;;;;;;;;;;;11.00;68.50;;;;;;5023385;28;19933;-48
2022/11/25 00:52:25;;;;;;;;;;;11.00;68.50;;;;;;5020949;28;20037;-51
2022/11/25 00:54:53;;;;;;;;;;;11.00;68.50;;;;;;5003185;28;20363;-48
2022/11/25 00:57:23;;;;;;;;;;;10.90;68.40;;;;;;5014065;28;19925;-49
2022/11/25 00:59:52;;;;;;;;;;;11.00;68.40;;;;;;5003807;28;20329;-47
2022/11/25 01:02:20;;;;;;;;;;;11.00;68.40;;;;;;5011864;28;19931;-51
2022/11/25 01:05:01;;;;;;;;;;;11.00;68.40;;;;;;5012723;28;20304;-47
2022/11/25 01:07:29;;;;;;;;;;;11.00;68.40;;;;;;5012476;28;19955;-50
2022/11/25 01:09:56;;;;;;;;;;;11.00;68.30;;;;;;5024545;28;19925;-48
2022/11/25 01:12:31;;;;;;;;;;;11.10;68.50;;;;;;5014827;28;19925;-52
2022/11/25 01:14:57;;;;;;;;;;;11.00;68.30;;;;;;5013093;28;20389;-49
2022/11/25 01:17:24;;;;;;;;;;;11.10;68.40;;;;;;5022753;28;20308;-51
2022/11/25 01:19:53;;;;;;;;;;;11.00;68.40;;;;;;5003524;28;19933;-48
2022/11/25 01:22:21;;;;;;;;;;;11.10;68.50;;;;;;5016499;28;19925;-46
2022/11/25 01:24:51;;;;;;;;;;;11.10;68.60;;;;;;5027651;28;19971;-50
2022/11/25 01:27:19;;;;;;;;;;;11.00;68.60;;;;;;5022743;28;19925;-50
2022/11/25 01:29:50;;;;;;;;;;;11.10;68.80;;;;;;5012421;28;20381;-49
2022/11/25 01:32:17;;;;;;;;;;;11.10;68.80;;;;;;5013254;28;20450;-46
2022/11/25 01:34:47;;;;;;;;;;;11.10;68.80;;;;;;5019787;28;19926;-51
2022/11/25 01:37:13;;;;;;;;;;;11.10;68.80;;;;;;5023022;28;19925;-51
2022/11/25 01:39:44;;;;;;;;;;;11.20;68.90;;;;;;5014215;28;19960;-50
2022/11/25 01:42:11;;;;;;;;;;;11.20;69.00;;;;;;5012584;28;20016;-49
2022/11/25 01:44:40;;;;;;;;;;;11.30;69.10;;;;;;5022604;28;19925;-51
2022/11/25 01:47:09;;;;;;;;;;;11.30;69.10;;;;;;5006171;28;20304;-48
2022/11/25 01:49:45;;;;;;;;;;;11.30;69.10;;;;;;5031521;28;20032;-48
2022/11/25 01:52:11;;;;;;;;;;;11.30;69.10;;;;;;5010798;28;19986;-48
2022/11/25 01:54:47;;;;;;;;;;;11.30;69.10;;;;;;5009947;28;19929;-52
2022/11/25 01:57:19;;;;;;;;;;;11.40;69.10;;;;;;5020014;28;19965;-48
2022/11/25 01:59:48;;;;;;;;;;;11.40;69.10;;;;;;4994356;28;19925;-47
2022/11/25 02:02:18;;;;;;;;;;;11.50;69.20;;;;;;5015162;28;19926;-51
2022/11/25 02:04:45;;;;;;;;;;;11.50;69.10;;;;;;5010002;28;19933;-49
2022/11/25 02:07:25;;;;;;;;;;;11.50;69.10;;;;;;5009143;28;20353;-51
2022/11/25 02:09:52;;;;;;;;;;;11.50;69.10;;;;;;5029833;28;20401;-50
2022/11/25 02:12:19;;;;;;;;;;;11.60;69.20;;;;;;5022540;28;19932;-52
2022/11/25 02:14:49;;;;;;;;;;;11.60;69.10;;;;;;5026287;28;19933;-51
2022/11/25 02:17:17;;;;;;;;;;;11.60;69.10;;;;;;5009432;28;19932;-52
2022/11/25 02:20:03;;;;;;;;;;;11.60;69.00;;;;;;5011674;28;19933;-49
2022/11/25 02:22:46;;;;;;;;;;;11.70;69.00;;;;;;5011421;28;19925;-47
2022/11/25 02:25:18;;;;;;;;;;;11.70;69.00;;;;;;5005441;28;20451;-49
2022/11/25 02:27:49;;;;;;;;;;;11.70;69.00;;;;;;5030743;28;19925;-48
2022/11/25 02:30:15;;;;;;;;;;;11.70;68.90;;;;;;5010403;28;19932;-51
2022/11/25 02:32:43;;;;;;;;;;;11.80;69.00;;;;;;5012961;28;19929;-48
2022/11/25 02:35:32;;;;;;;;;;;11.80;68.90;;;;;;4997890;28;19925;-48
2022/11/25 02:38:05;;;;;;;;;;;11.80;68.90;;;;;;4993558;28;19960;-50
2022/11/25 02:40:39;;;;;;;;;;;11.80;68.80;;;;;;5002864;28;20356;-47
2022/11/25 02:43:07;;;;;;;;;;;11.80;68.80;;;;;;4998818;28;19931;-52
2022/11/25 02:45:56;;;;;;;;;;;11.80;68.90;;;;;;5008981;28;19932;-49
2022/11/25 02:48:27;;;;;;;;;;;11.90;68.90;;;;;;4997927;28;20408;-51
2022/11/25 02:51:20;;;;;;;;;;;11.80;68.90;;;;;;5013084;28;19925;-50
2022/11/25 02:53:46;;;;;;;;;;;11.90;68.90;;;;;;5009485;28;20020;-48
2022/11/25 02:56:13;;;;;;;;;;;11.90;68.90;;;;;;4993558;28;19973;-48
2022/11/25 02:58:42;;;;;;;;;;;11.90;69.00;;;;;;5006071;28;20024;-51
2022/11/25 03:01:08;;;;;;;;;;;11.90;68.90;;;;;;5023944;28;19953;-52
2022/11/25 03:03:35;;;;;;;;;;;11.90;68.90;;;;;;5015601;28;19960;-47
2022/11/25 03:06:05;;;;;;;;;;;11.90;68.90;;;;;;5011847;28;19929;-48
2022/11/25 03:08:33;;;;;;;;;;;12.00;69.00;;;;;;5031621;28;19925;-48
2022/11/25 03:11:04;;;;;;;;;;;11.90;68.90;;;;;;5028493;28;19926;-51
2022/11/25 03:13:35;;;;;;;;;;;11.90;68.90;;;;;;5015462;28;19987;-51
2022/11/25 03:16:04;;;;;;;;;;;12.00;69.00;;;;;;5030114;28;19932;-52
2022/11/25 03:18:34;;;;;;;;;;;12.00;69.60;;;;;;5031827;28;19929;-48
2022/11/25 03:21:06;;;;;;;;;;;12.00;69.00;;;;;;5010645;28;19933;-50
2022/11/25 03:23:33;;;;;;;;;;;12.00;69.00;;;;;;5029132;28;20033;-50
2022/11/25 03:26:04;;;;;;;;;;;12.00;69.10;;;;;;5012976;28;19938;-47
2022/11/25 03:28:34;;;;;;;;;;;12.10;69.20;;;;;;5016646;28;19925;-48
2022/11/25 03:31:05;;;;;;;;;;;12.10;69.20;;;;;;5008573;28;19929;-51
2022/11/25 03:33:34;;;;;;;;;;;12.10;69.40;;;;;;5016025;28;20381;-49
2022/11/25 03:36:06;;;;;;;;;;;12.10;69.50;;;;;;5029378;28;20385;-52
2022/11/25 03:38:33;;;;;;;;;;;12.10;69.60;;;;;;5023196;28;19929;-52
2022/11/25 03:40:59;;;;;;;;;;;12.20;69.70;;;;;;5027986;28;19929;-48
2022/11/25 03:43:29;;;;;;;;;;;12.20;69.60;;;;;;5016537;28;20008;-47
2022/11/25 03:45:58;;;;;;;;;;;12.20;69.60;;;;;;5010735;28;20230;-48
2022/11/25 03:48:28;;;;;;;;;;;12.30;69.80;;;;;;5022253;28;19961;-49
2022/11/25 03:50:58;;;;;;;;;;;12.30;69.80;;;;;;5013063;28;20348;-47
2022/11/25 03:53:26;;;;;;;;;;;12.40;69.80;;;;;;5007405;28;19925;-51
2022/11/25 03:55:55;;;;;;;;;;;12.40;69.40;;;;;;5028645;28;20707;-50
2022/11/25 03:58:24;;;;;;;;;;;12.50;69.60;;;;;;5024593;28;19925;-51
2022/11/25 04:00:58;;;;;;;;;;;12.50;69.60;;;;;;5032446;28;19929;-51
2022/11/25 04:03:25;;;;;;;;;;;12.50;69.60;;;;;;5014506;28;19933;-48
2022/11/25 04:05:56;;;;;;;;;;;12.60;69.70;;;;;;5012521;28;20044;-51
2022/11/25 04:08:23;;;;;;;;;;;12.60;69.60;;;;;;5004388;28;19964;-49
2022/11/25 04:10:52;;;;;;;;;;;12.60;69.60;;;;;;4996418;28;19969;-48
2022/11/25 04:13:28;;;;;;;;;;;12.70;69.60;;;;;;5004045;28;20389;-48
2022/11/25 04:15:59;;;;;;;;;;;12.60;69.50;;;;;;5028745;28;20406;-47
2022/11/25 04:18:28;;;;;;;;;;;12.70;69.50;;;;;;5002037;28;19948;-48
2022/11/25 04:20:58;;;;;;;;;;;12.60;69.40;;;;;;5021755;28;19968;-48
2022/11/25 04:23:25;;;;;;;;;;;12.60;69.30;;;;;;5025749;28;19925;-50
2022/11/25 04:26:00;;;;;;;;;;;12.60;69.30;;;;;;5009798;28;19925;-52
2022/11/25 04:28:33;;;;;;;;;;;12.60;69.30;;;;;;5014230;28;20385;-51
2022/11/25 04:31:10;;;;;;;;;;;12.60;69.40;;;;;;5027748;28;20351;-48
2022/11/25 04:33:42;;;;;;;;;;;12.60;69.30;;;;;;5006292;28;19933;-48
2022/11/25 04:36:17;;;;;;;;;;;12.60;69.40;;;;;;5015504;28;19972;-52
2022/11/25 04:38:43;;;;;;;;;;;12.50;69.30;;;;;;5013487;28;20043;-48
2022/11/25 04:41:13;;;;;;;;;;;12.50;69.30;;;;;;5025355;28;19925;-51
2022/11/25 04:43:44;;;;;;;;;;;12.60;69.40;;;;;;5028179;28;19925;-52
2022/11/25 04:46:15;;;;;;;;;;;12.50;69.30;;;;;;5003151;28;19933;-50
2022/11/25 04:48:46;;;;;;;;;;;12.50;69.30;;;;;;4997034;28;20027;-47
2022/11/25 04:51:14;;;;;;;;;;;12.50;69.20;;;;;;5009476;28;19925;-48
2022/11/25 04:53:42;;;;;;;;;;;12.40;69.20;;;;;;4995235;28;20001;-47
2022/11/25 04:56:17;;;;;;;;;;;12.40;69.20;;;;;;4995436;28;19936;-51
2022/11/25 05:01:32;;;;;;;;;;;12.30;69.30;;;;;;5007837;28;19980;-47
2022/11/25 05:04:09;;;;;;;;;;;12.30;69.30;;;;;;5006869;28;20019;-48
2022/11/25 05:06:38;;;;;;;;;;;12.30;69.50;;;;;;5014832;28;20376;-50
2022/11/25 05:09:06;;;;;;;;;;;12.30;69.50;;;;;;5011301;28;20321;-47
2022/11/25 05:11:35;;;;;;;;;;;12.10;69.50;;;;;;5022645;28;19933;-51
2022/11/25 05:14:02;;;;;;;;;;;12.30;69.80;;;;;;5025446;28;20020;-49
2022/11/25 05:16:38;;;;;;;;;;;12.30;69.80;;;;;;5016393;28;19925;-51
2022/11/25 05:19:10;;;;;;;;;;;12.30;69.90;;;;;;5011364;28;19925;-51
2022/11/25 05:21:41;;;;;;;;;;;12.30;70.00;;;;;;5017219;28;19926;-47
2022/11/25 05:24:08;;;;;;;;;;;12.30;69.90;;;;;;5009195;28;19957;-52
2022/11/25 05:26:36;;;;;;;;;;;12.30;70.00;;;;;;5013622;28;19987;-47
2022/11/25 05:29:06;;;;;;;;;;;12.40;70.00;;;;;;5008532;28;19976;-47
2022/11/25 05:31:38;;;;;;;;;;;12.40;70.00;;;;;;5018049;28;19925;-48
2022/11/25 05:34:07;;;;;;;;;;;12.40;69.90;;;;;;4994019;28;19934;-52
2022/11/25 05:36:37;;;;;;;;;;;12.40;70.00;;;;;;5004848;28;19948;-47
2022/11/25 05:39:06;;;;;;;;;;;12.40;69.90;;;;;;5010361;28;19957;-47
2022/11/25 05:41:55;;;;;;;;;;;12.40;69.90;;;;;;5011933;28;19929;-52
2022/11/25 05:44:22;;;;;;;;;;;12.40;69.90;;;;;;5012134;28;19935;-48
2022/11/25 05:46:51;;;;;;;;;;;12.50;70.50;;;;;;4999897;28;19931;-47
2022/11/25 05:49:18;;;;;;;;;;;12.50;69.90;;;;;;5026922;28;20015;-51
2022/11/25 05:51:49;;;;;;;;;;;12.50;69.90;;;;;;5020111;28;19936;-47
2022/11/25 05:54:21;;;;;;;;;;;12.50;69.90;;;;;;5010196;28;19971;-49
2022/11/25 05:56:52;;;;;;;;;;;12.50;69.90;;;;;;5012660;28;19929;-52
2022/11/25 05:59:38;;;;;;;;;;;12.50;69.80;;;;;;5011333;28;20309;-47
2022/11/25 06:02:28;;;;;;;;;;;12.50;69.80;;;;;;5029406;28;19979;-52
2022/11/25 06:04:55;;;;;;;;;;;12.50;70.30;;;;;;5011367;28;19925;-48
2022/11/25 06:07:22;;;;;;;;;;;12.50;69.50;;;;;;5018486;28;19983;-48
2022/11/25 06:09:49;;;;;;;;;;;12.50;69.50;;;;;;5002204;28;19932;-52
2022/11/25 06:12:21;;;;;;;;;;;12.40;69.30;;;;;;4994142;28;19925;-48
2022/11/25 06:14:51;;;;;;;;;;;12.40;69.20;;;;;;5023441;28;19979;-48
2022/11/25 06:17:25;;;;;;;;;;;12.30;69.20;;;;;;5010510;28;19986;-52
2022/11/25 06:20:03;;;;;;;;;;;12.30;69.20;;;;;;5002515;28;19936;-48
2022/11/25 06:22:29;;;;;;;;;;;12.20;69.20;;;;;;5011889;28;19925;-49
2022/11/25 06:24:56;;;;;;;;;;;12.20;69.20;;;;;;5026647;28;19925;-48
2022/11/25 06:27:30;;;;;;;;;;;12.10;69.20;;;;;;5013491;28;19925;-48
2022/11/25 06:30:22;;;;;;;;;;;12.10;69.20;;;;;;5013567;28;19925;-51
2022/11/25 06:33:23;;;;;;;;;;;12.00;69.20;;;;;;5023698;28;19991;-47
2022/11/25 06:35:50;;;;;;;;;;;12.00;69.20;;;;;;5000354;28;19991;-51
2022/11/25 06:38:17;;;;;;;;;;;11.90;69.20;;;;;;5018996;28;19933;-51
2022/11/25 06:40:46;;;;;;;;;;;11.80;69.20;;;;;;5011407;28;19933;-48
2022/11/25 06:43:15;;;;;;;;;;;11.80;69.20;;;;;;5021077;28;19925;-47
2022/11/25 06:45:44;;;;;;;;;;;11.80;69.30;;;;;;5026384;28;19925;-51
2022/11/25 06:48:10;;;;;;;;;;;11.70;69.30;;;;;;5026170;28;19929;-49
2022/11/25 06:50:37;;;;;;;;;;;11.70;69.40;;;;;;5025603;28;19929;-51
2022/11/25 06:53:03;;;;;;;;;;;11.60;69.40;;;;;;5017262;28;20321;-51
2022/11/25 06:55:30;;;;;;;;;;;11.60;69.40;;;;;;5019362;28;20420;-48
2022/11/25 06:57:56;;;;;;;;;;;11.50;69.50;;;;;;5018381;28;20344;-46
2022/11/25 07:00:51;;;;;;;;;;;11.50;69.50;;;;;;5017886;28;19932;-51
2022/11/25 07:03:20;;;;;;;;;;;11.40;69.50;;;;;;5031524;28;19972;-51
2022/11/25 07:05:51;;;;;;;;;;;11.40;69.60;;;;;;5019412;28;20576;-52
2022/11/25 07:08:25;;;;;;;;;;;11.40;69.60;;;;;;5011876;28;20365;-51
2022/11/25 07:11:03;;;;;;;;;;;11.30;70.10;;;;;;5025378;28;19932;-50
2022/11/25 07:13:32;;;;;;;;;;;11.30;69.80;;;;;;5011691;28;19932;-46
2022/11/25 07:15:59;;;;;;;;;;;11.30;69.70;;;;;;5022923;28;19978;-50
2022/11/25 07:18:28;;;;;;;;;;;11.20;69.70;;;;;;5014151;28;19925;-50
2022/11/25 07:20:55;;;;;;;;;;;11.20;69.70;;;;;;5025029;28;20012;-48
2022/11/25 07:23:26;;;;;;;;;;;11.20;69.70;;;;;;5027256;28;19932;-51
2022/11/25 07:25:59;;;;;;;;;;;11.20;70.40;;;;;;5018090;28;19929;-52
2022/11/25 07:28:26;;;;;;;;;;;11.10;69.90;;;;;;5013408;28;19960;-49
2022/11/25 07:30:53;;;;;;;;;;;11.10;69.90;;;;;;5024270;28;19929;-52
2022/11/25 07:33:40;;;;;;;;;;;11.10;69.90;;;;;;5005038;28;19925;-51
2022/11/25 07:36:09;;;;;;;;;;;11.10;70.10;;;;;;5011501;28;20334;-47
2022/11/25 07:38:38;;;;;;;;;;;11.10;70.10;;;;;;5024194;28;19979;-49
2022/11/25 07:41:13;;;;;;;;;;;11.10;70.30;;;;;;5023954;28;19926;-51
2022/11/25 07:43:42;;;;;;;;;;;11.10;70.30;;;;;;5030251;28;19965;-48
2022/11/25 07:46:19;;;;;;;;;;;11.10;70.40;;;;;;5023544;28;20385;-50
2022/11/25 07:48:58;;;;;;;;;;;11.10;70.30;;;;;;5025005;28;19925;-49
2022/11/25 07:51:31;;;;;;;;;;;11.00;70.50;;;;;;5030998;28;19925;-50
2022/11/25 07:53:59;;;;;;;;;;;11.10;70.60;;;;;;5014756;28;19926;-51
2022/11/25 07:56:26;;;;;;;;;;;11.10;70.60;;;;;;5015740;28;19925;-52
2022/11/25 07:58:58;;;;;;;;;;;11.10;70.70;;;;;;5030200;28;20002;-49
2022/11/25 08:01:31;;;;;;;;;;;11.10;70.70;;;;;;5026291;28;19925;-49
2022/11/25 08:04:03;;;;;;;;;;;11.10;70.80;;;;;;5034451;28;19935;-51
2022/11/25 08:06:30;;;;;;;;;;;11.10;70.70;;;;;;5022222;28;19931;-51
2022/11/25 08:09:05;;;;;;;;;;;11.10;70.80;;;;;;5030893;28;19932;-51
2022/11/25 08:11:32;;;;;;;;;;;11.10;70.80;;;;;;5025722;28;19926;-49
2022/11/25 08:14:03;;;;;;;;;;;11.20;70.80;;;;;;5022020;28;19988;-47
2022/11/25 08:16:32;;;;;;;;;;;11.20;71.00;;;;;;5031638;28;19925;-48
2022/11/25 08:19:02;;;;;;;;;;;11.20;71.10;;;;;;5019681;28;19995;-51
2022/11/25 08:21:29;;;;;;;;;;;11.20;71.10;;;;;;5016108;28;19931;-47
2022/11/25 08:23:57;;;;;;;;;;;11.30;71.20;;;;;;5020019;28;19925;-50
2022/11/25 08:26:35;;;;;;;;;;;11.30;71.20;;;;;;5026442;28;19932;-47
2022/11/25 08:29:05;;;;;;;;;;;11.30;71.20;;;;;;5034009;28;19925;-47
2022/11/25 08:31:34;;;;;;;;;;;11.30;71.10;;;;;;5025888;28;19925;-49
2022/11/25 08:34:01;;;;;;;;;;;11.40;71.10;;;;;;5017255;28;19952;-49
2022/11/25 08:36:44;;;;;;;;;;;11.40;71.10;;;;;;5009272;28;19925;-51
2022/11/25 08:39:14;;;;;;;;;;;11.40;71.10;;;;;;5019912;23;19980;-45
2022/11/25 08:42:03;;;;;;;;;;;11.50;71.30;;;;;;4993992;28;20289;-48
2022/11/25 08:44:33;;;;;;;;;;;11.60;71.60;;;;;;4992488;28;20349;-49
2022/11/25 08:46:59;;;;;;;;;;;11.60;71.50;;;;;;4976486;28;19932;-45
2022/11/25 08:49:29;;;;;;;;;;;11.70;71.40;;;;;;5001491;28;19926;-45
2022/11/25 08:52:05;;;;;;;;;;;11.70;71.40;;;;;;5000284;28;19932;-47
2022/11/25 08:54:37;;;;;;;;;;;11.80;71.20;;;;;;5005763;28;20004;-46
2022/11/25 08:57:05;;;;;;;;;;;11.80;71.20;;;;;;5013340;28;20365;-46
2022/11/25 08:59:32;;;;;;;;;;;11.80;71.20;;;;;;5005548;28;19926;-49
2022/11/25 09:01:59;;;;;;;;;;;11.90;71.00;;;;;;5013366;28;19925;-44
2022/11/25 09:04:28;;;;;;;;;;;11.90;71.00;;;;;;5005257;28;19933;-45
2022/11/25 09:06:54;;;;;;;;;;;11.90;71.00;;;;;;5003924;28;19925;-48
2022/11/25 09:09:21;;;;;;;;;;;12.00;71.10;;;;;;5003741;28;19926;-47
2022/11/25 09:11:50;;;;;;;;;;;12.00;71.00;;;;;;4993781;28;19933;-46
2022/11/25 09:14:21;;;;;;;;;;;12.00;70.90;;;;;;4999265;28;20020;-46
2022/11/25 09:16:50;;;;;;;;;;;12.10;70.90;;;;;;4993503;28;20020;-46
2022/11/25 09:19:18;;;;;;;;;;;12.10;70.80;;;;;;4993307;28;19925;-46
2022/11/25 09:21:45;;;;;;;;;;;12.10;70.70;;;;;;4996340;28;19957;-45
2022/11/25 09:24:16;;;;;;;;;;;12.20;70.60;;;;;;5011446;28;20269;-45
2022/11/25 09:26:43;;;;;;;;;;;12.20;70.80;;;;;;5004645;28;19932;-47
2022/11/25 09:29:17;;;;;;;;;;;12.20;70.70;;;;;;5013236;28;19961;-46
2022/11/25 09:31:49;;;;;;;;;;;12.30;70.70;;;;;;5010449;28;19980;-45
2022/11/25 09:34:20;;;;;;;;;;;12.30;70.70;;;;;;5008857;28;20159;-45
2022/11/25 09:36:47;;;;;;;;;;;12.30;70.60;;;;;;4996594;28;20020;-46
2022/11/25 09:39:13;;;;;;;;;;;12.30;70.70;;;;;;5012859;28;19925;-45
2022/11/25 09:47:36;;;;;;;;;;;12.50;70.40;;;;;;5010777;28;19933;-46
2022/11/25 09:50:05;;;;;;;;;;;12.50;70.40;;;;;;5009302;28;19926;-46
2022/11/25 09:52:41;;;;;;;;;;;12.50;70.40;;;;;;5002517;28;20416;-46
2022/11/25 09:55:16;;;;;;;;;;;12.50;70.40;;;;;;4992303;28;21253;-45
2022/11/25 09:57:46;;;;;;;;;;;12.60;70.50;;;;;;4992836;28;19926;-47
2022/11/25 10:00:19;;;;;;;;;;;12.70;70.50;;;;;;4999403;28;19926;-46
2022/11/25 10:03:02;;;;;;;;;;;12.70;70.70;;;;;;5008762;28;20368;-46
2022/11/25 10:05:35;;;;;;;;;;;12.80;70.60;;;;;;5010228;28;19988;-46
2022/11/25 10:08:15;;;;;;;;;;;12.80;70.60;;;;;;5010665;28;20344;-45
2022/11/25 10:10:46;;;;;;;;;;;12.90;70.60;;;;;;5008984;28;19944;-45
2022/11/25 10:13:24;;;;;;;;;;;13.00;70.70;;;;;;5004005;28;19926;-46
2022/11/25 10:15:55;;;;;;;;;;;13.10;70.80;;;;;;5012106;28;20687;-46
2022/11/25 10:18:36;;;;;;;;;;;13.10;70.50;;;;;;5001164;28;19936;-46
2022/11/25 10:21:10;;;;;;;;;;;13.20;70.40;;;;;;5012326;28;19925;-45
2022/11/25 10:23:39;;;;;;;;;;;13.20;70.30;;;;;;4997719;28;20024;-47
2022/11/25 10:26:16;;;;;;;;;;;13.30;70.80;;;;;;4992561;28;20016;-47
2022/11/25 10:28:54;;;;;;;;;;;13.30;70.00;;;;;;5002853;28;19926;-47
2022/11/25 10:31:31;;;;;;;;;;;13.30;69.90;;;;;;5004051;28;19945;-47
2022/11/25 10:33:59;;;;;;;;;;;13.40;69.80;;;;;;5011252;28;19933;-46
2022/11/25 10:36:35;;;;;;;;;;;13.40;69.60;;;;;;5009756;28;19926;-45
2022/11/25 10:39:26;;;;;;;;;;;13.40;69.40;;;;;;5008242;28;19936;-46
2022/11/25 10:41:56;;;;;;;;;;;13.40;69.40;;;;;;5000445;28;19941;-47
2022/11/25 10:44:23;;;;;;;;;;;13.40;69.40;;;;;;4992193;28;19977;-47
2022/11/25 10:47:07;;;;;;;;;;;13.40;69.40;;;;;;5006136;28;19932;-47
2022/11/25 10:50:01;;;;;;;;;;;13.40;69.40;;;;;;5003807;28;19933;-46
2022/11/25 10:52:29;;;;;;;;;;;13.40;70.00;;;;;;5002457;28;19926;-46
2022/11/25 10:55:08;;;;;;;;;;;13.40;69.40;;;;;;4979760;28;20321;-47
2022/11/25 10:57:35;;;;;;;;;;;13.40;69.40;;;;;;5005926;28;20024;-45
2022/11/25 11:00:05;;;;;;;;;;;13.50;69.60;;;;;;5006020;28;19980;-46
2022/11/25 11:02:38;;;;;;;;;;;13.50;69.60;;;;;;5009836;28;19929;-46
2022/11/25 11:05:08;;;;;;;;;;;13.50;69.50;;;;;;5007806;28;19925;-47
2022/11/25 11:07:36;;;;;;;;;;;13.60;69.50;;;;;;5009646;28;19977;-45
2022/11/25 11:10:13;;;;;;;;;;;13.60;69.30;;;;;;5004039;28;19925;-46
2022/11/25 11:12:58;;;;;;;;;;;13.60;69.20;;;;;;4991692;28;19926;-46
2022/11/25 11:15:46;;;;;;;;;;;13.60;69.10;;;;;;5003251;28;19953;-46
2022/11/25 11:18:25;;;;;;;;;;;13.60;69.00;;;;;;4987112;28;19953;-46
2022/11/25 11:20:53;;;;;;;;;;;13.60;69.00;;;;;;5011841;28;19979;-50
2022/11/25 11:23:21;;;;;;;;;;;13.60;69.00;;;;;;5003556;28;19932;-49
2022/11/25 11:25:55;;;;;;;;;;;13.70;69.10;;;;;;5011698;28;20024;-51
2022/11/25 11:28:27;;;;;;;;;;;13.60;69.10;;;;;;5007135;28;19933;-47
2022/11/25 11:31:17;;;;;;;;;;;13.70;69.20;;;;;;5015511;28;19993;-47
2022/11/25 11:33:56;;;;;;;;;;;13.70;69.20;;;;;;5008431;28;20376;-47
2022/11/25 11:36:35;;;;;;;;;;;13.70;69.20;;;;;;5011444;28;20493;-49
2022/11/25 11:39:15;;;;;;;;;;;13.70;69.30;;;;;;5009307;28;19926;-48
2022/11/25 11:41:41;;;;;;;;;;;13.80;69.40;;;;;;5015320;28;19936;-47
2022/11/25 11:44:14;;;;;;;;;;;13.80;69.20;;;;;;5004899;28;19926;-49
2022/11/25 11:46:55;;;;;;;;;;;13.90;69.20;;;;;;5011201;28;20463;-48
2022/11/25 11:49:29;;;;;;;;;;;13.90;69.20;;;;;;5011567;28;19926;-49
2022/11/25 11:52:04;;;;;;;;;;;14.00;69.20;;;;;;5011017;28;19926;-47
2022/11/25 11:54:46;;;;;;;;;;;14.00;69.00;;;;;;5005013;28;20345;-50
2022/11/25 11:57:31;;;;;;;;;;;14.00;68.80;;;;;;5003175;28;19932;-49
2022/11/25 12:00:07;;;;;;;;;;;14.10;68.70;;;;;;4995388;28;19926;-45
2022/11/25 12:02:43;;;;;;;;;;;14.10;68.70;;;;;;4996586;28;20728;-46
2022/11/25 12:05:18;;;;;;;;;;;14.10;68.70;;;;;;5006385;28;19930;-49
2022/11/25 12:07:54;;;;;;;;;;;14.20;68.60;;;;;;5014503;28;19932;-49
2022/11/25 12:10:31;;;;;;;;;;;14.20;68.40;;;;;;5011324;28;19937;-48
2022/11/25 12:13:16;;;;;;;;;;;14.20;68.30;;;;;;5013665;28;19968;-50
2022/11/25 12:15:53;;;;;;;;;;;14.20;68.10;;;;;;5005858;28;19932;-50
2022/11/25 12:18:36;;;;;;;;;;;14.20;68.00;;;;;;5014597;28;19932;-49
2022/11/25 12:21:20;;;;;;;;;;;14.20;68.00;;;;;;5009249;28;19925;-51
2022/11/25 12:23:53;;;;;;;;;;;14.20;68.00;;;;;;5004322;28;19961;-48
2022/11/25 12:26:41;;;;;;;;;;;14.10;67.90;;;;;;4996370;28;19953;-50
2022/11/25 12:29:11;;;;;;;;;;;14.10;68.70;;;;;;5003133;28;19957;-50
2022/11/25 12:31:39;;;;;;;;;;;14.20;68.20;;;;;;5009636;28;19931;-46
2022/11/25 12:34:15;;;;;;;;;;;14.20;68.10;;;;;;5004647;28;19980;-48
2022/11/25 12:36:43;;;;;;;;;;;14.20;68.10;;;;;;5013959;28;20020;-49
2022/11/25 12:39:26;;;;;;;;;;;14.20;68.00;;;;;;4994884;28;20393;-45
2022/11/25 12:41:58;;;;;;;;;;;14.20;67.60;;;;;;5010962;28;20312;-49
2022/11/25 12:44:33;;;;;;;;;;;14.10;67.80;;;;;;5005691;28;20290;-50
2022/11/25 12:47:01;;;;;;;;;;;14.20;67.60;;;;;;5013720;28;20012;-50
2022/11/25 12:49:42;;;;;;;;;;;14.20;67.70;;;;;;5005745;28;19933;-50
2022/11/25 12:52:19;;;;;;;;;;;14.20;67.70;;;;;;5005012;28;19948;-47
2022/11/25 12:54:46;;;;;;;;;;;14.20;67.80;;;;;;5005165;28;19929;-46
2022/11/25 12:57:31;;;;;;;;;;;14.30;67.70;;;;;;5012670;28;19963;-51
2022/11/25 13:00:10;;;;;;;;;;;14.30;67.70;;;;;;5004895;28;20321;-49
2022/11/25 13:03:04;;;;;;;;;;;14.30;67.70;;;;;;5006724;28;19925;-50
2022/11/25 13:05:48;;;;;;;;;;;14.30;67.60;;;;;;5011231;28;19961;-49
2022/11/25 13:08:20;;;;;;;;;;;14.30;67.60;;;;;;5005578;28;19925;-50
2022/11/25 13:10:52;;;;;;;;;;;14.30;67.60;;;;;;5008463;28;19988;-45
2022/11/25 13:13:25;;;;;;;;;;;14.40;67.60;;;;;;5009088;28;19933;-46
2022/11/25 13:15:55;;;;;;;;;;;14.40;67.70;;;;;;5011047;28;19983;-46
2022/11/25 13:18:24;;;;;;;;;;;14.40;67.60;;;;;;5013108;28;19930;-48
2022/11/25 13:20:52;;;;;;;;;;;14.40;67.50;;;;;;5005875;28;20448;-45
2022/11/25 13:23:23;;;;;;;;;;;14.50;67.50;;;;;;5001199;28;19925;-47
2022/11/25 13:25:57;;;;;;;;;;;14.50;67.50;;;;;;5000177;28;19984;-46
2022/11/25 13:28:26;;;;;;;;;;;14.50;67.30;;;;;;5012861;28;19933;-47
2022/11/25 13:30:55;;;;;;;;;;;14.50;67.40;;;;;;5005025;28;19925;-46
2022/11/25 13:33:24;;;;;;;;;;;14.60;67.40;;;;;;5013201;28;19939;-46
2022/11/25 13:35:54;;;;;;;;;;;14.60;67.50;;;;;;5010120;28;19936;-46
2022/11/25 13:38:34;;;;;;;;;;;14.60;67.20;;;;;;5009479;28;19953;-47
2022/11/25 13:41:14;;;;;;;;;;;14.60;67.20;;;;;;5004941;28;19929;-49
2022/11/25 13:43:55;;;;;;;;;;;14.60;67.20;;;;;;5011980;28;19976;-46
2022/11/25 13:46:42;;;;;;;;;;;14.70;67.40;;;;;;5004842;28;19964;-46
2022/11/25 13:49:41;;;;;;;;;;;14.70;67.50;;;;;;5003701;28;19960;-47
2022/11/25 13:52:13;;;;;;;;;;;14.70;67.40;;;;;;4987636;28;20320;-47
2022/11/25 13:54:52;;;;;;;;;;;14.80;67.30;;;;;;5006327;28;19932;-46
2022/11/25 13:57:21;;;;;;;;;;;14.80;67.20;;;;;;5004452;28;19980;-47
2022/11/25 13:59:49;;;;;;;;;;;14.80;66.90;;;;;;4993055;28;20337;-47
2022/11/25 14:02:22;;;;;;;;;;;14.80;66.90;;;;;;4995495;28;19926;-47
2022/11/25 14:05:17;;;;;;;;;;;14.80;67.00;;;;;;4999233;28;20376;-46
2022/11/25 14:08:06;;;;;;;;;;;14.90;66.90;;;;;;4974489;28;19932;-47
2022/11/25 14:10:44;;;;;;;;;;;14.90;66.90;;;;;;4996554;28;20416;-45
2022/11/25 14:13:22;;;;;;;;;;;14.90;67.40;;;;;;4994557;28;20393;-49
2022/11/25 14:16:05;;;;;;;;;;;14.90;66.80;;;;;;4992268;28;19933;-48
2022/11/25 14:18:39;;;;;;;;;;;14.90;66.60;;;;;;4992731;28;20417;-48
2022/11/25 14:21:42;;;;;;;;;;;14.90;66.60;;;;;;5001724;28;20088;-46
2022/11/25 14:24:30;;;;;;;;;;;14.90;66.50;;;;;;5010261;28;20024;-47
2022/11/25 14:26:57;;;;;;;;;;;14.90;66.30;;;;;;4996932;28;19925;-47
2022/11/25 14:29:27;;;;;;;;;;;14.90;66.50;;;;;;5012181;28;19932;-48
2022/11/25 14:31:56;;;;;;;;;;;14.80;66.40;;;;;;5008590;28;19956;-49
2022/11/25 14:34:44;;;;;;;;;;;14.80;66.20;;;;;;5010981;28;20282;-49
2022/11/25 14:37:19;;;;;;;;;;;14.80;66.10;;;;;;5007244;28;20024;-49
2022/11/25 14:39:57;;;;;;;;;;;14.70;65.90;;;;;;5011849;28;19925;-50
2022/11/25 14:42:26;;;;;;;;;;;14.70;65.90;;;;;;5004775;28;20024;-45
2022/11/25 14:45:02;;;;;;;;;;;14.60;66.00;;;;;;5007604;28;19953;-49
2022/11/25 14:47:32;;;;;;;;;;;14.60;66.10;;;;;;5009598;28;19972;-48
2022/11/25 14:50:11;;;;;;;;;;;14.50;66.00;;;;;;5010066;28;19976;-49
2022/11/25 14:53:03;;;;;;;;;;;14.40;65.90;;;;;;5000924;28;19926;-46
2022/11/25 14:55:32;;;;;;;;;;;14.40;66.10;;;;;;4991866;28;19926;-47
2022/11/25 14:58:02;;;;;;;;;;;14.30;66.00;;;;;;4997575;28;19926;-48
2022/11/25 15:00:28;;;;;;;;;;;14.30;66.00;;;;;;5011823;28;19932;-50